Stormwatcher's Retreat Logo




                  Temp     Hi    Low   Out    Dew  Wind  Wind   Wind    Hi    Hi   Wind   Heat    THW   THSW                Rain  Solar   Solar Hi Solar   UV    UV    Hi     Heat    Cool    In     In    In     In     In   In Air          Wind  Wind    ISS   Arc.
  Date    Time     Out   Temp   Temp   Hum    Pt. Speed   Dir    Run Speed   Dir  Chill  Index  Index  Index   Bar    Rain  Rate   Rad.  Energy    Rad.  Index  Dose   UV     D-D     D-D    Temp   Hum    Dew   Heat    EMC Density     ET   Samp   Tx   Recept  Int.
------------------------------------------------------------------------------------------------------------------------------------------------------------------------------------------------------------------------------------------------------------------------
 8/17/19 12:10a   61.0   61.3   61.0    75   53.0   3.0    NE   0.50   6.0     E   61.0   60.7   60.7   57.9  30.090  0.00  0.00     0     0.00      0     0.0  0.00   0.0   0.028   0.000   73.7    58   58.0   74.1  10.60  .0736    0.000   212    5    100.0   10 
 8/17/19 12:20a   60.5   61.0   60.5    74   52.2   2.0   ENE   0.33   5.0   ENE   60.5   60.1   60.1   57.3  30.090  0.00  0.00     0     0.00      0     0.0  0.00   0.0   0.031   0.000   73.6    58   57.9   74.0  10.61  .0736    0.000   211    5    100.0   10 
 8/17/19 12:30a   59.5   60.5   59.5    76   51.9   3.0   ENE   0.50   4.0   NNE   59.5   59.1   59.1   56.2  30.089  0.00  0.00     0     0.00      0     0.0  0.00   0.0   0.038   0.000   73.6    58   57.9   74.0  10.61  .0736    0.000   212    5    100.0   10 
 8/17/19 12:40a   59.3   59.5   59.3    77   52.1   2.0     E   0.33   3.0   ENE   59.3   58.9   58.9   56.1  30.085  0.00  0.00     0     0.00      0     0.0  0.00   0.0   0.040   0.000   73.6    58   57.9   74.0  10.61  .0736    0.000   212    5    100.0   10 
 8/17/19 12:50a   60.0   60.0   59.3    78   53.1   3.0   ENE   0.50   6.0     E   60.0   59.8   59.8   57.0  30.088  0.00  0.00     0     0.00      0     0.0  0.00   0.0   0.035   0.000   73.6    58   57.9   74.0  10.61  .0736    0.000   211    5    100.0   10 
 8/17/19  1:00a   61.1   61.1   60.0    78   54.2   5.0   ENE   0.83  11.0    NE   61.1   61.0   61.0   58.3  30.085  0.00  0.00     0     0.00      0     0.0  0.00   0.0   0.027   0.000   73.6    58   57.9   74.0  10.61  .0736    0.001   212    5    100.0   10 
 8/17/19  1:10a   61.7   61.7   61.1    78   54.8   5.0   ENE   0.83  13.0   ENE   61.7   61.7   61.7   59.0  30.080  0.00  0.00     0     0.00      0     0.0  0.00   0.0   0.023   0.000   73.6    58   57.9   74.0  10.61  .0736    0.000   211    5    100.0   10 
 8/17/19  1:20a   62.1   62.1   61.7    77   54.8   6.0     E   1.00  13.0    NE   62.1   62.1   62.1   59.4  30.073  0.00  0.00     0     0.00      0     0.0  0.00   0.0   0.020   0.000   73.5    58   57.8   73.9  10.61  .0736    0.000   213    5    100.0   10 
 8/17/19  1:30a   62.5   62.5   62.1    77   55.2   6.0     E   1.00  14.0     E   62.5   62.5   62.5   59.8  30.070  0.00  0.00     0     0.00      0     0.0  0.00   0.0   0.017   0.000   73.5    58   57.8   73.9  10.61  .0736    0.000   212    5    100.0   10 
 8/17/19  1:40a   62.8   62.8   62.5    76   55.1   6.0     E   1.00  14.0   ENE   62.8   62.8   62.8   60.1  30.070  0.00  0.00     0     0.00      0     0.0  0.00   0.0   0.015   0.000   73.4    58   57.7   73.7  10.61  .0736    0.000   212    5    100.0   10 
 8/17/19  1:50a   62.8   62.9   62.8    76   55.1   6.0     E   1.00  12.0   ENE   62.8   62.8   62.8   60.1  30.066  0.00  0.00     0     0.00      0     0.0  0.00   0.0   0.015   0.000   73.4    58   57.7   73.7  10.61  .0736    0.000   214    5    100.0   10 
 8/17/19  2:00a   62.7   62.8   62.7    75   54.7   5.0     E   0.83  11.0     E   62.7   62.6   62.6   59.9  30.066  0.00  0.00     0     0.00      0     0.0  0.00   0.0   0.016   0.000   73.3    58   57.6   73.6  10.62  .0736    0.002   213    5    100.0   10 
 8/17/19  2:10a   62.8   62.9   62.7    75   54.8   5.0   ENE   0.83  15.0    NE   62.8   62.7   62.7   60.0  30.063  0.00  0.00     0     0.00      0     0.0  0.00   0.0   0.015   0.000   73.3    58   57.6   73.6  10.62  .0736    0.000   211    5    100.0   10 
 8/17/19  2:20a   62.9   62.9   62.8    75   54.9   5.0   ENE   0.83  12.0   ENE   62.9   62.8   62.8   60.1  30.063  0.00  0.00     0     0.00      0     0.0  0.00   0.0   0.015   0.000   73.3    58   57.6   73.6  10.62  .0736    0.000   212    5    100.0   10 
 8/17/19  2:30a   63.1   63.1   62.9    74   54.7   5.0     E   0.83  12.0   ENE   63.1   63.0   63.0   60.3  30.062  0.00  0.00     0     0.00      0     0.0  0.00   0.0   0.013   0.000   73.3    58   57.6   73.6  10.62  .0736    0.000   213    5    100.0   10 
 8/17/19  2:40a   60.8   63.2   60.8    73   52.1   4.0   ENE   0.67   9.0     N   60.8   60.4   60.4   57.6  30.067  0.00  0.00     0     0.00      0     0.0  0.00   0.0   0.029   0.000   73.2    58   57.5   73.5  10.62  .0737    0.000   212    5    100.0   10 
 8/17/19  2:50a   59.6   60.7   59.6    76   52.0   4.0   ENE   0.67  10.0   ENE   59.6   59.2   59.2   56.4  30.068  0.00  0.00     0     0.00      0     0.0  0.00   0.0   0.038   0.000   73.2    58   57.5   73.5  10.62  .0737    0.000   213    5    100.0   10 
 8/17/19  3:00a   58.8   59.6   58.8    79   52.3   5.0   ENE   0.83  10.0    NE   58.6   58.5   58.3   55.5  30.066  0.00  0.00     0     0.00      0     0.0  0.00   0.0   0.043   0.000   73.1    58   57.4   73.4  10.63  .0737    0.002   210    5    100.0   10 
 8/17/19  3:10a   58.4   58.8   58.4    80   52.3   3.0    NE   0.50   6.0    NE   58.4   58.2   58.2   55.4  30.062  0.00  0.00     0     0.00      0     0.0  0.00   0.0   0.046   0.000   73.1    58   57.4   73.4  10.63  .0737    0.000   210    5    100.0   10 
 8/17/19  3:20a   57.9   58.4   57.9    81   52.1   2.0   ENE   0.33   5.0    NE   57.9   57.7   57.7   54.9  30.060  0.00  0.00     0     0.00      0     0.0  0.00   0.0   0.049   0.000   73.1    58   57.4   73.4  10.63  .0737    0.000   214    5    100.0   10 
 8/17/19  3:30a   57.5   57.9   57.5    81   51.7   2.0   ENE   0.33   4.0     E   57.5   57.3   57.3   54.4  30.059  0.00  0.00     0     0.00      0     0.0  0.00   0.0   0.052   0.000   73.1    58   57.4   73.4  10.63  .0736    0.000   211    5    100.0   10 
 8/17/19  3:40a   58.0   58.0   57.4    83   52.9   3.0   ENE   0.50  14.0   ENE   58.0   57.9   57.9   55.1  30.055  0.00  0.00     0     0.00      0     0.0  0.00   0.0   0.049   0.000   73.1    58   57.4   73.4  10.63  .0736    0.000   211    5    100.0   10 
 8/17/19  3:50a   59.2   59.2   58.1    82   53.7   4.0   ENE   0.67  11.0   ENE   59.2   59.1   59.1   56.3  30.056  0.00  0.00     0     0.00      0     0.0  0.00   0.0   0.040   0.000   73.1    58   57.4   73.4  10.63  .0736    0.000   214    5    100.0   10 
 8/17/19  4:00a   58.7   59.3   58.7    81   52.9   3.0   ENE   0.50   9.0    NE   58.7   58.5   58.5   55.7  30.056  0.00  0.00     0     0.00      0     0.0  0.00   0.0   0.044   0.000   73.1    58   57.4   73.4  10.63  .0736    0.001   209    5    100.0   10 
 8/17/19  4:10a   58.5   58.7   58.5    81   52.7   3.0   ENE   0.50   5.0   ENE   58.5   58.3   58.3   55.5  30.055  0.00  0.00     0     0.00      0     0.0  0.00   0.0   0.045   0.000   73.0    58   57.3   73.2  10.63  .0737    0.000   213    5    100.0   10 
 8/17/19  4:20a   57.8   58.5   57.8    80   51.7   3.0   ENE   0.50   9.0   ENE   57.8   57.6   57.6   54.7  30.054  0.00  0.00     0     0.00      0     0.0  0.00   0.0   0.050   0.000   73.1    58   57.4   73.4  10.63  .0736    0.000   213    5    100.0   10 
 8/17/19  4:30a   57.5   57.8   57.5    82   52.0   4.0    NE   0.67   7.0   ENE   57.5   57.3   57.3   54.5  30.054  0.00  0.00     0     0.00      0     0.0  0.00   0.0   0.052   0.000   73.0    58   57.3   73.2  10.63  .0737    0.000   212    5    100.0   10 
 8/17/19  4:40a   57.7   57.7   57.4    83   52.6   3.0   ENE   0.50   9.0   ENE   57.7   57.5   57.5   54.7  30.047  0.00  0.00     0     0.00      0     0.0  0.00   0.0   0.051   0.000   72.9    58   57.3   73.1  10.63  .0737    0.000   213    5    100.0   10 
 8/17/19  4:50a   59.5   59.5   57.7    83   54.3   3.0     E   0.50   7.0   ENE   59.5   59.5   59.5   56.8  30.046  0.00  0.00     0     0.00      0     0.0  0.00   0.0   0.038   0.000   73.0    58   57.3   73.2  10.63  .0736    0.000   213    5    100.0   10 
 8/17/19  5:00a   60.3   60.3   59.6    81   54.4   3.0   ENE   0.50   7.0   ENE   60.3   60.3   60.3   57.6  30.043  0.00  0.00     0     0.00      0     0.0  0.00   0.0   0.033   0.000   72.9    58   57.3   73.1  10.63  .0736    0.001   212    5    100.0   10 
 8/17/19  5:10a   60.2   60.3   60.2    80   54.0   2.0   ENE   0.33   5.0   ENE   60.2   60.1   60.1   57.4  30.041  0.00  0.00     0     0.00      0     0.0  0.00   0.0   0.033   0.000   72.9    58   57.3   73.1  10.63  .0736    0.000   214    5    100.0   10 
 8/17/19  5:20a   60.5   60.5   60.1    80   54.3   4.0   ENE   0.67  10.0   ENE   60.5   60.5   60.5   57.8  30.041  0.00  0.00     0     0.00      0     0.0  0.00   0.0   0.031   0.000   72.9    58   57.3   73.1  10.63  .0736    0.000   212    5    100.0   10 
 8/17/19  5:30a   59.8   60.9   59.8    77   52.6   4.0   ENE   0.67   9.0   NNE   59.8   59.5   59.5   56.7  30.041  0.00  0.00     0     0.00      0     0.0  0.00   0.0   0.036   0.000   72.8    58   57.2   72.9  10.64  .0737    0.000   213    5    100.0   10 
 8/17/19  5:40a   58.4   59.8   58.4    79   51.9   5.0    NE   0.83  10.0   ENE   58.1   58.1   57.8   54.9  30.044  0.00  0.00     0     0.00      0     0.0  0.00   0.0   0.046   0.000   72.7    58   57.1   72.8  10.64  .0737    0.000   213    5    100.0   10 
 8/17/19  5:50a   58.6   58.6   58.3    81   52.8   3.0   ENE   0.50   6.0     E   58.6   58.4   58.4   55.6  30.049  0.00  0.00     0     0.00      0     0.0  0.00   0.0   0.044   0.000   72.6    58   57.0   72.6  10.65  .0737    0.000   213    5    100.0   10 
 8/17/19  6:00a   58.8   58.8   58.6    82   53.3   3.0   ENE   0.50   8.0   ENE   58.8   58.7   58.7   55.9  30.047  0.00  0.00     0     0.00      0     0.0  0.00   0.0   0.043   0.000   72.6    58   57.0   72.6  10.65  .0737    0.001   209    5    100.0   10 
 8/17/19  6:10a   59.2   59.2   58.8    82   53.7   3.0     E   0.50   6.0   ESE   59.2   59.1   59.1   56.3  30.043  0.00  0.00     0     0.00      0     0.0  0.00   0.0   0.040   0.000   72.6    58   57.0   72.6  10.65  .0737    0.000   214    5    100.0   10 
 8/17/19  6:20a   59.5   59.5   59.2    82   54.0   2.0   ESE   0.33   3.0   ENE   59.5   59.4   59.4   56.6  30.042  0.00  0.00     0     0.00      0     0.0  0.00   0.0   0.038   0.000   72.6    58   57.0   72.6  10.65  .0737    0.000   212    5    100.0   10 
 8/17/19  6:30a   59.5   59.5   59.4    82   54.0   2.0    NE   0.33   4.0   ESE   59.5   59.4   59.4   56.7  30.041  0.00  0.00     4     0.06      7     0.0  0.00   0.0   0.038   0.000   72.7    58   57.1   72.8  10.64  .0737    0.000   213    5    100.0   10 
 8/17/19  6:40a   60.4   60.4   59.5    81   54.5   3.0   ENE   0.50  10.0    NE   60.4   60.4   60.4   57.9  30.039  0.00  0.00    11     0.16     16     0.0  0.00   0.0   0.032   0.000   72.7    58   57.1   72.8  10.64  .0737    0.000   213    5    100.0   10 
 8/17/19  6:50a   59.7   60.5   59.7    79   53.2   3.0    NE   0.50   5.0   ENE   59.7   59.5   59.5   57.2  30.041  0.00  0.00    23     0.33     33     0.0  0.00   0.0   0.037   0.000   72.7    58   57.1   72.8  10.64  .0737    0.000   212    5    100.0   10 
 8/17/19  7:00a   60.1   60.1   59.5    81   54.2   3.0     E   0.50   6.0     E   60.1   60.0   60.0   60.0  30.040  0.00  0.00    38     0.54     40     0.0  0.00   0.0   0.034   0.000   72.7    58   57.1   72.8  10.64  .0737    0.001   213    5    100.0   10 
 8/17/19  7:10a   61.2   61.2   60.1    80   55.0   3.0     E   0.50  10.0   ENE   61.2   61.2   61.2   61.4  30.043  0.00  0.00    42     0.60     47     0.0  0.00   0.0   0.026   0.000   72.7    58   57.1   72.8  10.64  .0737    0.000   213    5    100.0   10 
 8/17/19  7:20a   62.2   62.2   61.2    77   54.9   5.0     E   0.83  12.0    NE   62.2   62.2   62.2   62.9  30.044  0.00  0.00    54     0.77     60     0.0  0.00   0.0   0.019   0.000   72.7    58   57.1   72.8  10.64  .0737    0.000   212    5    100.0   10 
 8/17/19  7:30a   60.4   62.3   60.4    76   52.8   3.0    NE   0.50   8.0   NNE   60.4   60.1   60.1   61.0  30.047  0.00  0.00    64     0.92     67     0.0  0.00   0.0   0.032   0.000   72.6    58   57.0   72.6  10.65  .0737    0.000   212    5    100.0   10 
 8/17/19  7:40a   59.7   60.4   59.7    78   52.8   3.0    NE   0.50   8.0   ENE   59.7   59.5   59.5   60.4  30.049  0.00  0.00    65     0.93     65     0.0  0.00   0.0   0.037   0.000   72.6    58   57.0   72.6  10.65  .0737    0.000   211    5    100.0   10 
 8/17/19  7:50a   59.5   59.8   59.5    79   53.0   4.0    NE   0.67   8.0   ENE   59.5   59.3   59.3   60.2  30.052  0.00  0.00    67     0.96     74     0.0  0.00   0.0   0.038   0.000   72.6    58   57.0   72.6  10.65  .0737    0.000   213    5    100.0   10 
 8/17/19  8:00a   59.8   59.8   59.5    81   54.0   6.0   ENE   1.00  11.0   ENE   59.4   59.7   59.3   60.8  30.051  0.00  0.00    84     1.20     90     0.0  0.00   0.0   0.036   0.000   72.6    58   57.0   72.6  10.65  .0737    0.002   211    5    100.0   10 
 8/17/19  8:10a   60.2   60.2   59.8    81   54.3   2.0     E   0.33   4.0     E   60.2   60.2   60.2   62.1  30.048  0.00  0.00    96     1.38     98     0.0  0.00   0.0   0.033   0.000   72.6    58   57.0   72.6  10.65  .0737    0.000   213    5    100.0   10 
 8/17/19  8:20a   60.2   60.7   60.2    79   53.7   3.0    NE   0.50   5.0    NE   60.2   60.1   60.1   62.4  30.049  0.00  0.00   114     1.63    128     0.0  0.00   0.0   0.033   0.000   72.6    58   57.0   72.6  10.65  .0737    0.000   211    5    100.0   10 
 8/17/19  8:30a   59.8   60.2   59.7    80   53.6   3.0    NE   0.50   6.0    NE   59.8   59.7   59.7   62.6  30.050  0.00  0.00   135     1.94    141     0.0  0.00   0.0   0.036   0.000   72.6    58   57.0   72.6  10.65  .0737    0.000   211    5    100.0   10 
 8/17/19  8:40a   60.6   60.6   59.8    81   54.7   2.0   ENE   0.33   5.0   ENE   60.6   60.6   60.6   64.2  30.048  0.00  0.00   161     2.31    174     0.0  0.00   0.0   0.031   0.000   72.6    58   57.0   72.6  10.65  .0737    0.000   212    5    100.0   10 
 8/17/19  8:50a   60.5   60.7   60.5    80   54.3   4.0    NE   0.67   6.0    NE   60.5   60.5   60.5   64.7  30.050  0.00  0.00   185     2.65    192     0.0  0.00   0.0   0.031   0.000   72.6    58   57.0   72.6  10.65  .0737    0.000   211    5    100.0   10 
 8/17/19  9:00a   61.0   61.0   60.5    81   55.1   3.0   ENE   0.50   7.0     E   61.0   61.0   61.0   65.5  30.048  0.00  0.00   201     2.88    239     0.0  0.00   0.0   0.028   0.000   72.7    58   57.1   72.8  10.64  .0737    0.004   212    5    100.0   10 
 8/17/19  9:10a   61.8   61.8   61.0    81   55.9   4.0   ENE   0.67   9.0   ENE   61.8   62.0   62.0   68.2  30.049  0.00  0.00   269     3.86    295     0.0  0.00   0.0   0.022   0.000   72.7    58   57.1   72.8  10.64  .0737    0.000   214    5    100.0   10 
 8/17/19  9:20a   62.4   62.4   61.8    80   56.1   4.0    NE   0.67   8.0     E   62.4   62.6   62.6   67.9  30.050  0.00  0.00   237     3.40    283     0.0  0.00   0.0   0.018   0.000   72.7    58   57.1   72.8  10.64  .0737    0.000   213    5    100.0   10 
 8/17/19  9:30a   63.1   63.1   62.4    80   56.8   5.0   ENE   0.83   9.0   ENE   63.1   63.4   63.4   71.0  30.050  0.00  0.00   341     4.89    396     0.0  0.00   0.0   0.013   0.000   72.7    58   57.1   72.8  10.64  .0737    0.000   212    5    100.0   10 
 8/17/19  9:40a   63.5   63.6   63.1    79   56.9   4.0    NE   0.67  10.0     E   63.5   63.8   63.8   70.3  30.051  0.00  0.00   303     4.34    406     0.0  0.00   0.0   0.010   0.000   72.7    58   57.1   72.8  10.64  .0737    0.000   213    5    100.0   10 
 8/17/19  9:50a   63.2   63.5   63.2    79   56.6   5.0   ENE   0.83   9.0   ENE   63.2   63.5   63.5   69.1  30.053  0.00  0.00   271     3.88    374     0.0  0.00   0.0   0.012   0.000   72.7    58   57.1   72.8  10.64  .0737    0.000   212    5    100.0   10 
 8/17/19 10:00a   63.7   63.7   63.2    78   56.7   5.0   ENE   0.83  11.0   ENE   63.7   64.0   64.0   74.6  30.056  0.00  0.00   562     8.06    659     0.0  0.00   0.0   0.009   0.000   72.7    58   57.1   72.8  10.64  .0737    0.008   213    5    100.0   10 
 8/17/19 10:10a   64.9   64.9   63.7    77   57.5   6.0    NE   1.00  10.0    NE   64.9   65.3   65.3   76.2  30.056  0.00  0.00   646     9.26    679     0.0  0.00   0.0   0.001   0.000   72.6    58   57.0   72.6  10.65  .0737    0.000   213    5    100.0   10 
 8/17/19 10:20a   65.7   65.7   64.9    74   57.2   5.0   NNE   0.83   9.0    NE   65.7   66.1   66.1   76.3  30.058  0.00  0.00   549     7.87    652     0.0  0.00   0.0   0.000   0.005   72.5    58   56.9   72.5  10.65  .0738    0.000   211    5    100.0   10 
 8/17/19 10:30a   65.9   65.9   65.7    73   57.0   5.0    NE   0.83  10.0    NE   65.9   66.3   66.3   77.3  30.057  0.00  0.00   654     9.38    724     0.1  0.01   0.5   0.000   0.006   72.5    58   56.9   72.5  10.65  .0738    0.000   211    5    100.0   10 
 8/17/19 10:40a   65.8   65.9   65.6    72   56.5   6.0    NE   1.00  11.0   ENE   65.8   66.1   66.1   77.1  30.058  0.00  0.00   668     9.58    714     1.2  0.09   2.1   0.000   0.006   72.5    58   56.9   72.5  10.65  .0738    0.000   213    5    100.0   10 
 8/17/19 10:50a   66.0   66.0   65.8    72   56.7   6.0    NE   1.00  10.0   ENE   66.0   66.3   66.3   77.3  30.061  0.00  0.00   684     9.81    742     2.0  0.14   2.5   0.000   0.007   72.4    58   56.8   72.3  10.65  .0738    0.000   212    5    100.0   10 
 8/17/19 11:00a   66.1   66.2   65.9    72   56.8   5.0    NE   0.83   9.0    NE   66.1   66.4   66.4   77.5  30.059  0.00  0.00   697     9.99    756     2.7  0.19   3.0   0.000   0.008   72.4    58   56.8   72.3  10.65  .0738    0.015   213    5    100.0   10 
 8/17/19 11:10a   66.1   66.2   66.1    72   56.8   5.0    NE   0.83   8.0   NNE   66.1   66.4   66.4   77.5  30.056  0.00  0.00   728    10.44    740     3.0  0.21   3.3   0.000   0.008   72.4    58   56.8   72.3  10.65  .0738    0.000   211    5    100.0   10 
 8/17/19 11:20a   66.1   66.1   65.9    73   57.2   4.0    NE   0.67   7.0   ENE   66.1   66.5   66.5   77.7  30.053  0.00  0.00   741    10.62    749     3.3  0.24   3.4   0.000   0.008   72.4    58   56.8   72.3  10.65  .0738    0.000   211    5    100.0   10 
 8/17/19 11:30a   65.6   66.1   65.5    73   56.7   5.0    NE   0.83   7.0    NE   65.6   65.9   65.9   77.1  30.054  0.00  0.00   757    10.85    763     3.6  0.26   3.9   0.000   0.004   72.3    58   56.7   72.2  10.66  .0738    0.000   213    5    100.0   10 
 8/17/19 11:40a   65.8   65.8   65.5    73   56.9   4.0   ENE   0.67   7.0    NE   65.8   66.1   66.1   77.3  30.053  0.00  0.00   770    11.04    775     4.1  0.29   4.3   0.000   0.006   72.2    59   57.1   72.1  10.86  .0738    0.000   213    5    100.0   10 
 8/17/19 11:50a   65.9   66.1   65.9    73   57.0   4.0    NE   0.67   9.0   ENE   65.9   66.3   66.3   77.6  30.052  0.00  0.00   783    11.22    789     4.1  0.29   4.5   0.000   0.006   72.2    59   57.1   72.1  10.86  .0738    0.000   213    5    100.0   10 
 8/17/19 12:00p   65.6   65.9   65.6    73   56.7   5.0    NE   0.83   9.0   NNE   65.6   65.9   65.9   77.2  30.052  0.00  0.00   795    11.40    802     4.8  0.34   5.0   0.000   0.004   72.2    59   57.1   72.1  10.86  .0738    0.018   213    5    100.0   10 
 8/17/19 12:10p   65.7   65.7   65.5    73   56.8   6.0    NE   1.00  10.0    NE   65.7   66.0   66.0   77.3  30.049  0.00  0.00   806    11.55    812     5.2  0.37   5.8   0.000   0.005   72.2    59   57.1   72.1  10.86  .0738    0.000   212    5    100.0   10 
 8/17/19 12:20p   65.8   65.9   65.7    73   56.9   7.0    NE   1.17  11.0   NNE   65.8   66.1   66.1   77.1  30.051  0.00  0.00   816    11.70    821     5.8  0.41   6.3   0.000   0.006   72.2    59   57.1   72.1  10.86  .0738    0.000   211    5    100.0   10 
 8/17/19 12:30p   65.4   65.7   65.4    74   56.9   8.0    NE   1.33  11.0    NE   64.8   65.7   65.1   75.7  30.050  0.00  0.00   824    11.81    830     6.3  0.45   6.4   0.000   0.003   72.1    59   57.0   72.0  10.87  .0738    0.000   213    5    100.0   10 
 8/17/19 12:40p   65.8   65.8   65.3    75   57.7   6.0    NE   1.00  10.0    NE   65.8   66.3   66.3   77.7  30.044  0.00  0.00   833    11.94    837     6.6  0.47   6.9   0.000   0.006   72.0    59   56.9   71.8  10.87  .0738    0.000   213    5    100.0   10 
 8/17/19 12:50p   66.3   66.4   65.8    74   57.8   7.0    NE   1.17  11.0    NE   66.3   66.8   66.8   77.9  30.040  0.00  0.00   839    12.03    844     6.7  0.48   6.9   0.000   0.009   72.0    59   56.9   71.8  10.87  .0738    0.000   213    5    100.0   10 
 8/17/19  1:00p   66.5   66.5   66.3    73   57.6   6.0    NE   1.00  10.0    NE   66.5   67.0   67.0   78.3  30.039  0.00  0.00   845    12.11    847     6.7  0.48   7.0   0.000   0.010   72.0    60   57.4   71.9  11.01  .0738    0.020   211    5    100.0   10 
 8/17/19  1:10p   66.7   66.8   66.5    73   57.8   6.0    NE   1.00  10.0    NE   66.7   67.2   67.2   78.5  30.037  0.00  0.00   849    12.17    851     7.0  0.50   7.1   0.000   0.012   72.1    60   57.4   72.1  11.01  .0737    0.000   212    5    100.0   10 
 8/17/19  1:20p   66.9   67.0   66.7    73   58.0   6.0    NE   1.00  10.0   NNE   66.9   67.5   67.5   78.8  30.039  0.00  0.00   851    12.20    853     6.9  0.49   7.2   0.000   0.013   72.1    60   57.4   72.1  11.01  .0737    0.000   212    5    100.0   10 
 8/17/19  1:30p   67.0   67.0   66.6    73   58.1   6.0    NE   1.00  11.0    NE   67.0   67.6   67.6   78.9  30.037  0.00  0.00   853    12.23    854     6.9  0.49   7.2   0.000   0.014   72.2    60   57.5   72.2  11.01  .0737    0.000   213    5    100.0   10 
 8/17/19  1:40p   67.1   67.2   66.9    73   58.2   7.0    NE   1.17  11.0    NE   67.1   67.7   67.7   78.7  30.037  0.00  0.00   852    12.21    854     6.9  0.49   7.0   0.000   0.015   72.2    60   57.5   72.2  11.01  .0737    0.000   211    5    100.0   10 
 8/17/19  1:50p   67.0   67.2   66.9    73   58.1   7.0    NE   1.17  11.0    NE   67.0   67.6   67.6   78.6  30.039  0.00  0.00   849    12.17    853     6.6  0.47   6.8   0.000   0.014   72.3    60   57.6   72.4  11.00  .0737    0.000   212    5    100.0   10 
 8/17/19  2:00p   66.7   67.0   66.7    73   57.8   7.0    NE   1.17  11.0    NE   66.7   67.2   67.2   78.2  30.036  0.00  0.00   846    12.13    847     6.7  0.48   6.7   0.000   0.012   72.3    60   57.6   72.4  11.00  .0737    0.020   213    5    100.0   10 
 8/17/19  2:10p   67.0   67.0   66.6    73   58.1   6.0    NE   1.00  11.0     E   67.0   67.6   67.6   78.8  30.035  0.00  0.00   842    12.07    846     6.5  0.46   6.7   0.000   0.014   72.4    60   57.7   72.5  11.00  .0737    0.000   211    5    100.0   10 
 8/17/19  2:20p   67.3   67.4   66.9    73   58.3   6.0    NE   1.00  10.0    NE   67.3   67.9   67.9   78.9  30.034  0.00  0.00   848    12.16    858     6.2  0.44   6.5   0.000   0.016   72.5    60   57.8   72.7  11.00  .0737    0.000   211    5    100.0   10 
 8/17/19  2:30p   68.2   68.2   67.4    72   58.8   7.0    NE   1.17  11.0    NE   68.2   68.9   68.9   79.1  30.031  0.00  0.00   888    12.73    916     6.0  0.43   6.4   0.000   0.022   72.6    60   57.9   72.8  11.00  .0736    0.000   214    5    100.0   10 
 8/17/19  2:40p   67.7   68.2   67.7    72   58.3   7.0    NE   1.17  12.0   NNE   67.7   68.4   68.4   79.2  30.029  0.00  0.00   670     9.60    838     4.6  0.33   5.5   0.000   0.019   72.7    60   58.0   72.9  11.00  .0736    0.000   213    5    100.0   10 
 8/17/19  2:50p   67.8   67.8   67.4    72   58.4   6.0    NE   1.00  10.0    NE   67.8   68.5   68.5   79.4  30.023  0.00  0.00   816    11.70    844     5.1  0.36   5.3   0.000   0.019   72.6    60   57.9   72.8  11.00  .0736    0.000   213    5    100.0   10 
 8/17/19  3:00p   68.1   68.1   67.6    72   58.7   6.0    NE   1.00  11.0     N   68.1   68.8   68.8   79.9  30.020  0.00  0.00   793    11.37    800     4.9  0.35   5.1   0.000   0.022   72.7    60   58.0   72.9  11.00  .0736    0.019   212    5    100.0   10 
 8/17/19  3:10p   68.4   68.4   68.1    71   58.6   6.0    NE   1.00  12.0   NNE   68.4   69.0   69.0   80.1  30.019  0.00  0.00   779    11.17    786     4.2  0.30   4.7   0.000   0.024   72.8    60   58.1   73.1  10.99  .0736    0.000   213    5    100.0   10 
 8/17/19  3:20p   68.7   68.7   68.4    70   58.5   6.0    NE   1.00  13.0    NE   68.7   69.2   69.2   80.2  30.015  0.00  0.00   763    10.94    770     3.5  0.25   3.8   0.000   0.026   72.9    60   58.2   73.3  10.99  .0735    0.000   211    5    100.0   10 
 8/17/19  3:30p   68.5   68.8   68.4    70   58.3   6.0    NE   1.00  11.0     N   68.5   69.0   69.0   80.0  30.012  0.00  0.00   747    10.71    754     3.4  0.24   3.5   0.000   0.024   72.8    60   58.1   73.1  10.99  .0735    0.000   214    5    100.0   10 
 8/17/19  3:40p   67.4   68.5   67.4    71   57.7   8.0    NE   1.33  12.0    NE   66.8   67.9   67.3   77.6  30.011  0.00  0.00   728    10.44    737     3.3  0.24   3.4   0.000   0.017   72.3    60   57.6   72.4  11.00  .0736    0.000   212    5    100.0   10 
 8/17/19  3:50p   67.6   67.6   67.2    72   58.2   7.0    NE   1.17  11.0    NE   67.6   68.2   68.2   79.0  30.007  0.00  0.00   706    10.12    715     2.9  0.21   3.3   0.000   0.018   72.0    61   57.8   72.0  11.17  .0737    0.000   211    5    100.0   10 
 8/17/19  4:00p   67.8   67.8   67.6    71   58.1   8.0    NE   1.33  12.0    NE   67.1   68.4   67.7   78.0  30.006  0.00  0.00   687     9.85    696     2.3  0.16   2.8   0.000   0.019   71.9    61   57.7   71.8  11.17  .0737    0.018   212    5    100.0   10 
 8/17/19  4:10p   67.9   67.9   67.7    72   58.5   7.0    NE   1.17  11.0    NE   67.9   68.6   68.6   79.3  30.006  0.00  0.00   667     9.56    675     1.9  0.14   2.3   0.000   0.020   71.7    61   57.5   71.6  11.18  .0737    0.000   212    5    100.0   10 
 8/17/19  4:20p   68.3   68.3   67.9    71   58.5   7.0    NE   1.17  11.0    NE   68.3   68.9   68.9   79.6  30.004  0.00  0.00   645     9.25    656     1.6  0.11   1.9   0.000   0.023   71.6    62   57.9   71.5  11.32  .0737    0.000   212    5    100.0   10 
 8/17/19  4:30p   68.3   68.4   68.2    70   58.1   7.0    NE   1.17  12.0   NNE   68.3   68.8   68.8   79.5  30.003  0.00  0.00   622     8.92    633     1.0  0.07   1.5   0.000   0.023   71.7    61   57.5   71.6  11.18  .0737    0.000   213    5    100.0   10 
 8/17/19  4:40p   68.1   68.5   68.1    70   57.9   7.0    NE   1.17  13.0    NE   68.1   68.7   68.7   79.3  30.000  0.00  0.00   599     8.59    612     0.0  0.00   0.0   0.000   0.022   71.9    61   57.7   71.8  11.17  .0737    0.000   209    5    100.0   10 
 8/17/19  4:50p   68.2   68.3   68.0    70   58.0   7.0    NE   1.17  14.0    NE   68.2   68.8   68.8   79.3  29.999  0.00  0.00   574     8.23    585     0.0  0.00   0.0   0.000   0.022   72.0    61   57.8   72.0  11.17  .0736    0.000   212    5    100.0   10 
 8/17/19  5:00p   68.3   68.4   68.1    70   58.1   7.0    NE   1.17  13.0   ENE   68.3   68.8   68.8   79.2  29.995  0.00  0.00   549     7.87    559     0.0  0.00   0.0   0.000   0.023   72.2    62   58.5   72.4  11.31  .0736    0.016   213    5    100.0   10 
 8/17/19  5:10p   67.9   68.3   67.9    71   58.1   8.0    NE   1.33  14.0    NE   67.2   68.5   67.8   77.7  29.994  0.00  0.00   527     7.55    538     0.0  0.00   0.0   0.000   0.020   72.4    62   58.6   72.6  11.30  .0735    0.000   213    5    100.0   10 
 8/17/19  5:20p   67.8   68.0   67.7    71   58.1   7.0    NE   1.17  13.0   NNE   67.8   68.4   68.4   78.5  29.989  0.00  0.00   503     7.21    513     0.0  0.00   0.0   0.000   0.019   72.4    62   58.6   72.6  11.30  .0735    0.000   211    5    100.0   10 
 8/17/19  5:30p   68.0   68.0   67.7    73   59.0   7.0    NE   1.17  13.0     E   68.0   68.8   68.8   78.8  29.987  0.00  0.00   487     6.98    510     0.0  0.00   0.0   0.000   0.021   72.5    62   58.7   72.8  11.30  .0735    0.000   212    5    100.0   10 
 8/17/19  5:40p   67.6   68.1   67.6    73   58.6   7.0    NE   1.17  12.0    NE   67.6   68.3   68.3   78.1  29.981  0.00  0.00   442     6.34    457     0.0  0.00   0.0   0.000   0.018   72.7    62   58.9   73.1  11.30  .0734    0.000   213    5    100.0   10 
 8/17/19  5:50p   67.7   67.7   67.6    72   58.3   7.0    NE   1.17  14.0   ENE   67.7   68.4   68.4   77.9  29.980  0.00  0.00   411     5.89    424     0.0  0.00   0.0   0.000   0.019   72.6    62   58.8   72.9  11.30  .0735    0.000   211    5    100.0   10 
 8/17/19  6:00p   67.8   67.9   67.7    72   58.4   8.0    NE   1.33  14.0    NE   67.1   68.5   67.8   76.6  29.973  0.00  0.00   382     5.48    396     0.0  0.00   0.0   0.000   0.019   72.6    62   58.8   72.9  11.30  .0734    0.012   211    5    100.0   10 
 8/17/19  6:10p   67.3   67.8   67.3    72   58.0   9.0   ENE   1.50  16.0    NE   66.0   67.9   66.6   74.7  29.969  0.00  0.00   351     5.03    366     0.0  0.00   0.0   0.000   0.016   72.6    62   58.8   72.9  11.30  .0734    0.000   213    5    100.0   10 
 8/17/19  6:20p   66.6   67.3   66.6    72   57.3   8.0    NE   1.33  13.0     N   66.0   67.0   66.4   74.4  29.968  0.00  0.00   318     4.56    330     0.0  0.00   0.0   0.000   0.011   72.5    62   58.7   72.8  11.30  .0734    0.000   212    5    100.0   10 
 8/17/19  6:30p   66.3   66.7   66.3    73   57.4   7.0    NE   1.17  13.0    NE   66.3   66.7   66.7   74.5  29.962  0.00  0.00   289     4.14    302     0.0  0.00   0.0   0.000   0.009   72.4    62   58.6   72.6  11.30  .0735    0.000   213    5    100.0   10 
 8/17/19  6:40p   65.7   66.3   65.7    74   57.2   8.0    NE   1.33  13.0   NNE   65.1   66.1   65.5   72.4  29.957  0.00  0.00   259     3.71    274     0.0  0.00   0.0   0.000   0.005   72.3    62   58.5   72.5  11.30  .0735    0.000   213    5    100.0   10 
 8/17/19  6:50p   66.1   66.1   65.7    74   57.6   8.0   ENE   1.33  14.0   ENE   65.5   66.6   66.0   72.1  29.956  0.00  0.00   228     3.27    243     0.0  0.00   0.0   0.000   0.008   72.5    62   58.7   72.8  11.30  .0734    0.000   211    5    100.0   10 
 8/17/19  7:00p   66.0   66.2   66.0    74   57.5   9.0    NE   1.50  15.0    NE   64.7   66.4   65.1   70.1  29.955  0.00  0.00   193     2.77    209     0.0  0.00   0.0   0.000   0.007   72.2    62   58.5   72.4  11.31  .0735    0.008   213    5    100.0   10 
 8/17/19  7:10p   65.8   65.9   65.8    75   57.7  10.0   ENE   1.67  18.0   ENE   63.8   66.3   64.3   68.2  29.949  0.00  0.00   160     2.29    178     0.0  0.00   0.0   0.000   0.006   71.9    63   58.6   72.0  11.51  .0735    0.000   208    5    100.0   10 
 8/17/19  7:20p   65.4   65.8   65.4    75   57.3  10.0   ENE   1.67  19.0   ENE   63.3   65.8   63.7   66.6  29.952  0.00  0.00   124     1.78    139     0.0  0.00   0.0   0.000   0.003   71.8    63   58.5   71.9  11.51  .0735    0.000   214    5    100.0   10 
 8/17/19  7:30p   65.2   65.4   65.2    76   57.4   8.0    NE   1.33  13.0    NE   64.6   65.6   65.0   67.0  29.952  0.00  0.00    93     1.33    105     0.0  0.00   0.0   0.000   0.001   71.7    63   58.4   71.7  11.52  .0735    0.000   212    5    100.0   10 
 8/17/19  7:40p   64.8   65.2   64.7    76   57.1   9.0   ENE   1.50  16.0   ENE   63.4   65.1   63.7   62.6  29.943  0.00  0.00    65     0.93     79     0.0  0.00   0.0   0.001   0.000   71.6    64   58.8   71.7  11.65  .0735    0.000   212    5    100.0   10 
 8/17/19  7:50p   64.1   64.7   64.1    77   56.7   9.0   ENE   1.50  15.0     N   62.5   64.4   62.8   61.2  29.945  0.00  0.00    41     0.59     49     0.0  0.00   0.0   0.006   0.000   71.0    64   58.2   70.8  11.65  .0736    0.000   214    5    100.0   10 
 8/17/19  8:00p   63.7   64.1   63.7    78   56.7   9.0   ENE   1.50  14.0   ENE   62.0   64.0   62.3   60.3  29.942  0.00  0.00    24     0.34     30     0.0  0.00   0.0   0.009   0.000   70.5    64   57.7   70.2  11.65  .0737    0.004   210    5    100.0   10 
 8/17/19  8:10p   62.8   63.7   62.8    78   55.8   7.0    NE   1.17  12.0    NE   62.7   62.9   62.8   60.3  29.942  0.00  0.00    13     0.19     18     0.0  0.00   0.0   0.015   0.000   70.4    64   57.6   70.1  11.65  .0737    0.000   213    5    100.0   10 
 8/17/19  8:20p   62.0   62.8   62.0    79   55.4   7.0    NE   1.17  11.0   ENE   61.7   62.1   61.8   59.2  29.941  0.00  0.00     5     0.07      7     0.0  0.00   0.0   0.021   0.000   70.2    64   57.4   69.8  11.65  .0738    0.000   213    5    100.0   10 
 8/17/19  8:30p   61.9   62.1   61.9    80   55.7   6.0   ENE   1.00  10.0   NNE   61.9   62.1   62.1   59.4  29.941  0.00  0.00     0     0.00      0     0.0  0.00   0.0   0.022   0.000   70.0    64   57.3   69.6  11.65  .0738    0.000   213    5    100.0   10 
 8/17/19  8:40p   61.7   61.9   61.7    81   55.8   7.0   ENE   1.17  13.0   ENE   61.3   61.9   61.5   58.8  29.941  0.00  0.00     0     0.00      0     0.0  0.00   0.0   0.023   0.000   69.8    64   57.1   69.4  11.65  .0738    0.000   213    5    100.0   10 
 8/17/19  8:50p   61.5   61.7   61.5    81   55.6   5.0   ENE   0.83  12.0    NE   61.5   61.6   61.6   58.9  29.942  0.00  0.00     0     0.00      0     0.0  0.00   0.0   0.024   0.000   69.7    64   57.0   69.4  11.66  .0738    0.000   214    5    100.0   10 
 8/17/19  9:00p   61.1   61.5   61.1    81   55.2   5.0    NE   0.83   9.0    NE   61.1   61.2   61.2   58.5  29.944  0.00  0.00     0     0.00      0     0.0  0.00   0.0   0.027   0.000   69.9    64   57.2   69.5  11.65  .0738    0.001   212    5    100.0   10 
 8/17/19  9:10p   60.9   61.1   60.9    82   55.4   4.0   ENE   0.67   9.0   ENE   60.9   61.0   61.0   58.3  29.946  0.00  0.00     0     0.00      0     0.0  0.00   0.0   0.028   0.000   69.9    64   57.2   69.5  11.65  .0738    0.000   211    5    100.0   10 
 8/17/19  9:20p   61.1   61.1   60.9    83   55.9   4.0   ENE   0.67   9.0     E   61.1   61.2   61.2   58.5  29.945  0.00  0.00     0     0.00      0     0.0  0.00   0.0   0.027   0.000   70.2    64   57.4   69.8  11.65  .0738    0.000   212    5    100.0   10 
 8/17/19  9:30p   61.3   61.3   61.1    83   56.1   4.0   ENE   0.67   9.0     E   61.3   61.5   61.5   58.8  29.949  0.00  0.00     0     0.00      0     0.0  0.00   0.0   0.026   0.000   70.3    63   57.1   69.9  11.54  .0738    0.000   213    5    100.0   10 
 8/17/19  9:40p   61.0   61.3   61.0    83   55.8   3.0    NE   0.50   8.0   ENE   61.0   61.1   61.1   58.4  29.950  0.00  0.00     0     0.00      0     0.0  0.00   0.0   0.028   0.000   70.6    63   57.4   70.2  11.54  .0737    0.000   212    5    100.0   10 
 8/17/19  9:50p   60.8   61.0   60.7    83   55.6   3.0   ENE   0.50   9.0   ENE   60.8   60.9   60.9   58.2  29.948  0.00  0.00     0     0.00      0     0.0  0.00   0.0   0.029   0.000   71.0    63   57.8   70.7  11.53  .0736    0.000   213    5    100.0   10 
 8/17/19 10:00p   61.1   61.1   60.8    83   55.9   4.0   ENE   0.67   9.0   ENE   61.1   61.2   61.2   58.5  29.944  0.00  0.00     0     0.00      0     0.0  0.00   0.0   0.027   0.000   71.3    63   58.1   71.2  11.52  .0736    0.001   211    5    100.0   10 
 8/17/19 10:10p   61.0   61.1   61.0    84   56.1   3.0   ENE   0.50   6.0     E   61.0   61.2   61.2   58.5  29.945  0.00  0.00     0     0.00      0     0.0  0.00   0.0   0.028   0.000   71.5    62   57.8   71.4  11.32  .0736    0.000   212    5    100.0   10 
 8/17/19 10:20p   61.4   61.4   61.0    84   56.5   4.0   ENE   0.67  10.0   ENE   61.4   61.6   61.6   58.9  29.945  0.00  0.00     0     0.00      0     0.0  0.00   0.0   0.025   0.000   71.7    62   58.0   71.6  11.32  .0735    0.000   213    5    100.0   10 
 8/17/19 10:30p   61.7   61.7   61.4    84   56.8   5.0   ENE   0.83  10.0     E   61.7   61.9   61.9   59.2  29.944  0.00  0.00     0     0.00      0     0.0  0.00   0.0   0.023   0.000   71.9    62   58.2   71.9  11.31  .0735    0.000   212    5    100.0   10 
 8/17/19 10:40p   61.5   61.8   61.5    84   56.6   4.0   ENE   0.67   8.0   ENE   61.5   61.7   61.7   59.0  29.942  0.00  0.00     0     0.00      0     0.0  0.00   0.0   0.024   0.000   72.0    62   58.3   72.1  11.31  .0735    0.000   210    5    100.0   10 
 8/17/19 10:50p   61.3   61.5   61.3    84   56.4   4.0   ENE   0.67   7.0     E   61.3   61.5   61.5   58.8  29.944  0.00  0.00     0     0.00      0     0.0  0.00   0.0   0.026   0.000   72.1    62   58.4   72.2  11.31  .0735    0.000   210    5    100.0   10 
 8/17/19 11:00p   60.7   61.3   60.7    84   55.8   4.0   ENE   0.67   8.0     E   60.7   60.8   60.8   58.1  29.944  0.00  0.00     0     0.00      0     0.0  0.00   0.0   0.030   0.000   72.2    62   58.5   72.4  11.31  .0734    0.001   211    5    100.0   10 
 8/17/19 11:10p   60.2   60.7   60.2    84   55.3   4.0   ENE   0.67   7.0   ENE   60.2   60.3   60.3   57.6  29.944  0.00  0.00     0     0.00      0     0.0  0.00   0.0   0.033   0.000   72.3    62   58.5   72.5  11.30  .0734    0.000   211    5    100.0   10 
 8/17/19 11:20p   60.4   60.4   60.2    85   55.9   4.0   ENE   0.67   9.0   NNE   60.4   60.5   60.5   57.8  29.942  0.00  0.00     0     0.00      0     0.0  0.00   0.0   0.032   0.000   72.4    62   58.6   72.6  11.30  .0734    0.000   211    5    100.0   10 
 8/17/19 11:30p   60.9   60.9   60.5    85   56.4   5.0   ENE   0.83  11.0   ENE   60.9   61.1   61.1   58.4  29.943  0.00  0.00     0     0.00      0     0.0  0.00   0.0   0.028   0.000   72.5    62   58.7   72.8  11.30  .0734    0.000   209    5    100.0   10 
 8/17/19 11:40p   61.1   61.1   60.9    84   56.2   4.0   ENE   0.67  11.0   ESE   61.1   61.3   61.3   58.6  29.940  0.00  0.00     0     0.00      0     0.0  0.00   0.0   0.027   0.000   72.5    61   58.3   72.7  11.15  .0734    0.000   212    5    100.0   10 
 8/17/19 11:50p   60.9   61.1   60.9    84   56.0   5.0   ENE   0.83  10.0   ENE   60.9   61.1   61.1   58.4  29.940  0.00  0.00     0     0.00      0     0.0  0.00   0.0   0.028   0.000   72.6    61   58.4   72.9  11.15  .0734    0.000   213    5    100.0   10 
 8/18/19 12:00a   60.9   60.9   60.8    84   56.0   5.0   ENE   0.83  11.0     E   60.9   61.1   61.1   58.4  29.935  0.00  0.00     0     0.00      0     0.0  0.00   0.0   0.028   0.000   72.7    61   58.5   73.0  11.14  .0734    0.001   213    5    100.0   10 
 8/18/19 12:10a   60.8   60.8   60.8    84   55.9   4.0   ENE   0.67  10.0   ENE   60.8   60.9   60.9   58.2  29.932  0.00  0.00     0     0.00      0     0.0  0.00   0.0   0.029   0.000   72.7    61   58.5   73.0  11.14  .0733    0.000   212    5    100.0   10 
 8/18/19 12:20a   60.8   60.8   60.8    83   55.6   5.0   ENE   0.83  13.0   ENE   60.8   60.9   60.9   58.2  29.930  0.00  0.00     0     0.00      0     0.0  0.00   0.0   0.029   0.000   72.8    61   58.6   73.2  11.14  .0733    0.000   213    5    100.0   10 
 8/18/19 12:30a   60.8   60.8   60.8    83   55.6   5.0   ENE   0.83  10.0     E   60.8   60.9   60.9   58.2  29.931  0.00  0.00     0     0.00      0     0.0  0.00   0.0   0.029   0.000   72.8    61   58.6   73.2  11.14  .0733    0.000   213    5    100.0   10 
 8/18/19 12:40a   60.9   60.9   60.8    82   55.4   5.0   ENE   0.83  10.0   ENE   60.9   61.0   61.0   58.3  29.928  0.00  0.00     0     0.00      0     0.0  0.00   0.0   0.028   0.000   72.9    61   58.7   73.3  11.13  .0733    0.000   213    5    100.0   10 
 8/18/19 12:50a   60.9   60.9   60.9    82   55.4   5.0   ENE   0.83  12.0     E   60.9   61.0   61.0   58.3  29.925  0.00  0.00     0     0.00      0     0.0  0.00   0.0   0.028   0.000   72.9    61   58.7   73.3  11.13  .0733    0.000   212    5    100.0   10 
 8/18/19  1:00a   61.0   61.0   60.9    82   55.5   5.0   ENE   0.83  10.0     E   61.0   61.1   61.1   58.4  29.927  0.00  0.00     0     0.00      0     0.0  0.00   0.0   0.028   0.000   73.0    61   58.8   73.5  11.13  .0733    0.001   212    5    100.0   10 
 8/18/19  1:10a   61.0   61.1   61.0    81   55.1   4.0     E   0.67  10.0     E   61.0   61.0   61.0   58.3  29.925  0.00  0.00     0     0.00      0     0.0  0.00   0.0   0.028   0.000   73.0    61   58.8   73.5  11.13  .0733    0.000   212    5    100.0   10 
 8/18/19  1:20a   60.5   61.0   60.5    80   54.3   2.0   ENE   0.33   6.0   ENE   60.5   60.5   60.5   57.7  29.922  0.00  0.00     0     0.00      0     0.0  0.00   0.0   0.031   0.000   73.0    61   58.8   73.5  11.13  .0733    0.000   213    5    100.0   10 
 8/18/19  1:30a   59.7   60.5   59.7    80   53.5   2.0   ENE   0.33   4.0     E   59.7   59.6   59.6   56.8  29.918  0.00  0.00     0     0.00      0     0.0  0.00   0.0   0.037   0.000   73.0    61   58.8   73.5  11.13  .0733    0.000   212    5    100.0   10 
 8/18/19  1:40a   58.7   59.6   58.7    80   52.5   2.0    NE   0.33   6.0    NE   58.7   58.5   58.5   55.6  29.915  0.00  0.00     0     0.00      0     0.0  0.00   0.0   0.044   0.000   73.0    60   58.3   73.4  10.99  .0733    0.000   212    5    100.0   10 
Email: AdamSPAM@StormwatchersRetreat.com (To send me email remove the word 'SPAM' from my email address.)